Time;durP1;ratioP1;P1;durP2;ratioP2;P2;SDS_P1;SDS_P2;PMS_P1;PMS_P2;Temp;Humidity;BMP_temperature;BMP_pressure;BME280_temperature;BME280_humidity;BME280_pressure;Samples;Min_cycle;Max_cycle;Signal;HPM_P1;HPM_P2
2023/07/01 00:01:19;;;;;;;;;;;15.70;99.90;;;;;;5016452;28;19924;-93
2023/07/01 00:03:45;;;;;;;;;;;15.70;99.90;;;;;;5019119;28;19946;-85
2023/07/01 00:06:15;;;;;;;;;;;15.70;99.90;;;;;;5001273;28;19902;-89
2023/07/01 00:08:42;;;;;;;;;;;15.70;99.90;;;;;;4982914;28;19921;-90
2023/07/01 00:11:09;;;;;;;;;;;15.70;99.90;;;;;;4973010;28;19972;-88
2023/07/01 00:13:35;;;;;;;;;;;15.70;99.90;;;;;;4981512;28;20331;-90
2023/07/01 00:16:04;;;;;;;;;;;15.80;99.90;;;;;;4950689;28;19914;-89
2023/07/01 00:18:30;;;;;;;;;;;15.80;99.90;;;;;;4969038;28;19914;-88
2023/07/01 00:20:55;;;;;;;;;;;15.80;99.90;;;;;;4993130;28;20375;-91
2023/07/01 00:23:21;;;;;;;;;;;15.90;99.90;;;;;;4984294;28;20317;-90
2023/07/01 00:25:49;;;;;;;;;;;15.90;99.90;;;;;;5038725;28;19916;-91
2023/07/01 00:28:14;;;;;;;;;;;15.90;99.90;;;;;;5041077;28;19952;-85
2023/07/01 00:30:41;;;;;;;;;;;15.90;99.90;;;;;;5037764;28;19901;-91
2023/07/01 00:33:08;;;;;;;;;;;15.90;99.90;;;;;;5041588;28;20020;-91
2023/07/01 00:35:34;;;;;;;;;;;15.90;99.90;;;;;;5028953;28;19913;-89
2023/07/01 00:38:00;;;;;;;;;;;15.90;99.90;;;;;;5035189;28;19909;-89
2023/07/01 00:40:25;;;;;;;;;;;15.90;99.90;;;;;;5037535;28;19915;-89
2023/07/01 00:42:51;;;;;;;;;;;15.90;99.90;;;;;;5065422;28;19912;-87
2023/07/01 00:45:18;;;;;;;;;;;16.00;99.90;;;;;;5081841;28;19897;-81
2023/07/01 00:47:43;;;;;;;;;;;16.00;99.90;;;;;;5045860;28;19928;-92
2023/07/01 00:50:11;;;;;;;;;;;16.00;99.90;;;;;;5044070;28;19905;-91
2023/07/01 00:52:40;;;;;;;;;;;16.00;99.90;;;;;;5033730;28;19909;-90
2023/07/01 00:55:08;;;;;;;;;;;16.10;99.90;;;;;;5039947;28;19909;-94
2023/07/01 00:57:34;;;;;;;;;;;16.10;99.90;;;;;;5028131;28;19924;-90
2023/07/01 01:00:01;;;;;;;;;;;16.10;99.90;;;;;;5049202;28;19909;-90
2023/07/01 01:02:30;;;;;;;;;;;16.20;99.90;;;;;;5058243;28;19904;-79
2023/07/01 01:05:10;;;;;;;;;;;16.20;99.90;;;;;;5058167;28;19927;-86
2023/07/01 01:07:39;;;;;;;;;;;16.20;99.90;;;;;;5051853;28;19982;-88
2023/07/01 01:10:08;;;;;;;;;;;16.30;99.90;;;;;;5056177;28;19913;-90
2023/07/01 01:12:34;;;;;;;;;;;16.30;99.90;;;;;;5043556;28;19977;-92
2023/07/01 01:15:01;;;;;;;;;;;16.30;99.90;;;;;;5023889;28;20401;-89
2023/07/01 01:17:29;;;;;;;;;;;16.30;99.90;;;;;;5009546;28;19920;-89
2023/07/01 01:19:56;;;;;;;;;;;16.30;99.90;;;;;;5057565;28;19920;-93
2023/07/01 01:22:24;;;;;;;;;;;16.30;99.90;;;;;;5065798;28;19984;-89
2023/07/01 01:24:51;;;;;;;;;;;16.30;99.90;;;;;;5055159;28;19964;-88
2023/07/01 01:27:20;;;;;;;;;;;16.40;99.90;;;;;;5037401;28;19917;-91
2023/07/01 01:29:46;;;;;;;;;;;16.40;99.90;;;;;;5039468;28;19901;-87
2023/07/01 01:32:12;;;;;;;;;;;16.40;99.90;;;;;;5055874;28;19924;-91
2023/07/01 01:34:38;;;;;;;;;;;16.40;99.90;;;;;;5061926;28;19909;-94
2023/07/01 01:37:06;;;;;;;;;;;16.40;99.90;;;;;;5027078;28;19909;-93
2023/07/01 01:39:34;;;;;;;;;;;16.40;99.90;;;;;;5027702;28;20318;-94
2023/07/01 01:42:08;;;;;;;;;;;16.50;99.90;;;;;;5027483;28;19921;-93
2023/07/01 01:44:51;;;;;;;;;;;16.50;99.90;;;;;;5024252;28;19914;-94
2023/07/01 01:47:29;;;;;;;;;;;16.50;99.90;;;;;;5022077;28;19926;-93
2023/07/01 01:49:58;;;;;;;;;;;16.50;99.90;;;;;;5023665;28;19910;-92
2023/07/01 01:52:25;;;;;;;;;;;16.50;99.90;;;;;;5034063;28;19909;-87
2023/07/01 01:54:56;;;;;;;;;;;16.50;99.90;;;;;;5027504;28;19924;-94
2023/07/01 01:57:26;;;;;;;;;;;16.50;99.90;;;;;;5020578;28;19910;-96
2023/07/01 01:59:51;;;;;;;;;;;16.50;99.90;;;;;;5004689;28;19948;-93
2023/07/01 02:02:17;;;;;;;;;;;16.60;99.90;;;;;;5009252;28;19992;-92
2023/07/01 02:04:42;;;;;;;;;;;16.60;99.90;;;;;;5015977;28;19909;-91
2023/07/01 02:07:08;;;;;;;;;;;16.60;99.90;;;;;;5068320;28;19978;-88
2023/07/01 02:09:38;;;;;;;;;;;16.60;99.90;;;;;;5032773;28;19985;-93
2023/07/01 02:12:04;;;;;;;;;;;16.60;99.90;;;;;;5039649;28;20315;-91
2023/07/01 02:14:31;;;;;;;;;;;16.70;99.90;;;;;;5050283;28;19928;-85
2023/07/01 02:16:58;;;;;;;;;;;16.70;99.90;;;;;;5037368;28;19909;-92
2023/07/01 02:19:24;;;;;;;;;;;16.70;99.90;;;;;;5071926;28;20044;-93
2023/07/01 02:21:49;;;;;;;;;;;16.70;99.90;;;;;;5010957;28;19949;-92
2023/07/01 02:24:15;;;;;;;;;;;16.80;99.90;;;;;;5066326;28;19992;-93
2023/07/01 02:26:41;;;;;;;;;;;16.70;99.90;;;;;;5095564;28;19921;-92
2023/07/01 02:29:08;;;;;;;;;;;16.80;99.90;;;;;;5064718;28;19925;-91
2023/07/01 02:31:34;;;;;;;;;;;16.80;99.90;;;;;;5079526;28;19913;-93
2023/07/01 02:34:02;;;;;;;;;;;16.80;99.90;;;;;;5083698;28;19913;-91
2023/07/01 02:36:29;;;;;;;;;;;16.90;99.90;;;;;;5095765;28;19912;-90
2023/07/01 02:38:54;;;;;;;;;;;16.90;99.90;;;;;;5067509;28;19926;-90
2023/07/01 02:41:20;;;;;;;;;;;17.00;99.90;;;;;;5071895;28;19976;-89
2023/07/01 02:43:46;;;;;;;;;;;17.00;99.90;;;;;;5080984;28;20286;-91
2023/07/01 02:46:12;;;;;;;;;;;17.00;99.90;;;;;;5083810;28;19923;-89
2023/07/01 02:48:38;;;;;;;;;;;17.00;99.90;;;;;;5085627;28;19908;-88
2023/07/01 02:51:04;;;;;;;;;;;17.10;99.90;;;;;;5093655;28;19903;-85
2023/07/01 02:53:31;;;;;;;;;;;17.10;99.90;;;;;;5087690;28;19912;-91
2023/07/01 02:55:58;;;;;;;;;;;17.20;99.90;;;;;;5095686;28;19909;-86
2023/07/01 02:58:25;;;;;;;;;;;17.20;99.90;;;;;;5083146;28;20301;-90
2023/07/01 03:00:53;;;;;;;;;;;17.20;99.90;;;;;;5066797;28;19908;-89
2023/07/01 03:03:19;;;;;;;;;;;17.20;99.90;;;;;;5064663;28;19931;-89
2023/07/01 03:05:45;;;;;;;;;;;17.20;99.90;;;;;;5066876;28;19926;-89
2023/07/01 03:08:11;;;;;;;;;;;17.10;99.90;;;;;;5098792;28;19916;-89
2023/07/01 03:10:38;;;;;;;;;;;17.10;99.90;;;;;;5080299;28;19915;-88
2023/07/01 03:13:03;;;;;;;;;;;17.10;99.90;;;;;;5092467;28;19913;-88
2023/07/01 03:15:29;;;;;;;;;;;17.10;99.90;;;;;;5094503;28;19908;-88
2023/07/01 03:17:55;;;;;;;;;;;17.10;99.90;;;;;;5082114;28;19900;-89
2023/07/01 03:20:24;;;;;;;;;;;17.20;99.90;;;;;;5068871;28;20703;-89
2023/07/01 03:22:50;;;;;;;;;;;17.20;99.90;;;;;;5080727;28;19912;-90
2023/07/01 03:25:17;;;;;;;;;;;17.20;99.90;;;;;;5082116;28;20392;-89
2023/07/01 03:27:43;;;;;;;;;;;17.40;99.90;;;;;;5086083;28;19917;-90
2023/07/01 03:30:13;;;;;;;;;;;17.50;99.90;;;;;;5054031;28;19948;-90
2023/07/01 03:32:43;;;;;;;;;;;17.50;99.90;;;;;;5035050;28;19909;-88
2023/07/01 03:35:09;;;;;;;;;;;17.60;99.90;;;;;;5050532;28;19925;-91
2023/07/01 03:37:38;;;;;;;;;;;17.60;99.90;;;;;;5030341;28;19893;-93
2023/07/01 03:40:04;;;;;;;;;;;17.70;99.90;;;;;;5031615;28;19897;-88
2023/07/01 03:42:30;;;;;;;;;;;17.60;99.90;;;;;;4996897;28;20037;-91
2023/07/01 03:44:57;;;;;;;;;;;17.60;99.90;;;;;;4997288;28;19902;-84
2023/07/01 03:47:24;;;;;;;;;;;17.50;99.90;;;;;;4966697;28;19906;-90
2023/07/01 03:49:49;;;;;;;;;;;17.60;99.90;;;;;;4991824;28;19946;-91
2023/07/01 03:52:15;;;;;;;;;;;17.80;99.90;;;;;;4994568;28;19922;-91
2023/07/01 03:54:41;;;;;;;;;;;18.00;99.90;;;;;;4993083;28;19933;-92
2023/07/01 03:57:07;;;;;;;;;;;18.10;99.90;;;;;;4985481;28;19911;-91
2023/07/01 03:59:33;;;;;;;;;;;18.10;99.90;;;;;;4943735;29;20031;-91
2023/07/01 04:02:01;;;;;;;;;;;18.10;99.90;;;;;;4970833;28;19924;-89
2023/07/01 04:04:26;;;;;;;;;;;18.10;99.90;;;;;;4974771;28;19973;-86
2023/07/01 04:06:55;;;;;;;;;;;18.20;99.90;;;;;;4971024;28;20284;-89
2023/07/01 04:09:23;;;;;;;;;;;18.30;99.90;;;;;;4966248;28;19933;-90
2023/07/01 04:11:50;;;;;;;;;;;18.50;99.90;;;;;;4948809;28;19911;-91
2023/07/01 04:14:15;;;;;;;;;;;18.50;99.90;;;;;;5012637;28;19909;-92
2023/07/01 04:16:48;;;;;;;;;;;18.50;99.90;;;;;;5022609;28;19920;-92
2023/07/01 04:19:16;;;;;;;;;;;18.60;99.90;;;;;;5024703;28;19910;-93
2023/07/01 04:21:43;;;;;;;;;;;18.70;99.90;;;;;;5034862;28;19941;-93
2023/07/01 04:24:08;;;;;;;;;;;18.90;99.90;;;;;;5035542;28;19909;-91
2023/07/01 04:26:35;;;;;;;;;;;19.10;99.90;;;;;;5017221;28;19961;-89
2023/07/01 04:29:01;;;;;;;;;;;19.10;99.90;;;;;;5020767;28;19914;-90
2023/07/01 04:31:27;;;;;;;;;;;19.10;99.90;;;;;;5055732;28;19981;-90
2023/07/01 04:33:53;;;;;;;;;;;19.10;99.90;;;;;;5076791;28;19908;-89
2023/07/01 04:36:19;;;;;;;;;;;19.00;99.90;;;;;;5096954;28;19913;-87
2023/07/01 04:38:45;;;;;;;;;;;19.10;99.90;;;;;;5094614;28;19915;-87
2023/07/01 04:41:10;;;;;;;;;;;19.10;99.90;;;;;;5086755;28;19912;-88
2023/07/01 04:43:36;;;;;;;;;;;19.20;99.90;;;;;;5082888;28;19936;-86
2023/07/01 04:46:03;;;;;;;;;;;19.60;99.90;;;;;;5092625;28;19909;-89
2023/07/01 04:48:29;;;;;;;;;;;19.90;99.90;;;;;;5091643;28;19918;-88
2023/07/01 04:50:56;;;;;;;;;;;20.20;99.60;;;;;;5077618;28;19929;-80
2023/07/01 04:53:22;;;;;;;;;;;20.20;99.20;;;;;;5073265;28;19944;-87
2023/07/01 04:55:48;;;;;;;;;;;20.20;99.00;;;;;;5099076;28;19896;-87
2023/07/01 04:58:14;;;;;;;;;;;20.10;98.90;;;;;;5095083;28;19913;-90
2023/07/01 05:00:44;;;;;;;;;;;20.00;99.00;;;;;;5096359;28;20153;-91
2023/07/01 05:03:12;;;;;;;;;;;19.80;99.00;;;;;;5098073;28;19901;-89
2023/07/01 05:05:38;;;;;;;;;;;19.70;99.00;;;;;;5080789;28;19912;-87
2023/07/01 05:08:04;;;;;;;;;;;19.50;99.00;;;;;;5096502;28;19947;-87
2023/07/01 05:10:30;;;;;;;;;;;19.50;99.40;;;;;;5075911;28;19916;-87
2023/07/01 05:12:55;;;;;;;;;;;19.90;99.90;;;;;;5083085;28;19908;-88
2023/07/01 05:15:22;;;;;;;;;;;20.50;99.90;;;;;;5094065;28;19917;-87
2023/07/01 05:17:48;;;;;;;;;;;21.20;99.90;;;;;;5068616;28;19920;-90
2023/07/01 05:20:13;;;;;;;;;;;21.70;99.10;;;;;;5079874;28;19909;-87
2023/07/01 05:22:39;;;;;;;;;;;21.90;98.10;;;;;;5058920;28;19912;-87
2023/07/01 05:25:05;;;;;;;;;;;22.30;96.90;;;;;;5078134;28;19912;-88
2023/07/01 05:27:31;;;;;;;;;;;22.20;95.40;;;;;;5090228;28;19931;-82
2023/07/01 05:29:57;;;;;;;;;;;22.10;95.70;;;;;;5098180;28;19912;-87
2023/07/01 05:32:23;;;;;;;;;;;22.20;95.40;;;;;;5097779;28;19919;-88
2023/07/01 05:34:49;;;;;;;;;;;22.50;94.90;;;;;;5073064;28;20361;-86
2023/07/01 05:37:16;;;;;;;;;;;22.70;94.00;;;;;;5089976;28;19908;-87
2023/07/01 05:39:41;;;;;;;;;;;22.60;93.40;;;;;;5079154;28;19916;-87
2023/07/01 05:42:07;;;;;;;;;;;22.60;93.40;;;;;;5083508;28;20262;-88
2023/07/01 05:44:33;;;;;;;;;;;22.50;93.30;;;;;;5062615;28;19909;-88
2023/07/01 05:47:00;;;;;;;;;;;22.50;92.20;;;;;;5066247;28;20365;-89
2023/07/01 05:49:27;;;;;;;;;;;22.40;92.60;;;;;;5075008;28;19988;-87
2023/07/01 05:51:54;;;;;;;;;;;22.40;92.00;;;;;;5061871;28;20375;-90
2023/07/01 05:54:20;;;;;;;;;;;22.20;92.30;;;;;;5066948;28;19924;-90
2023/07/01 05:56:46;;;;;;;;;;;22.20;92.10;;;;;;5068713;28;19908;-91
2023/07/01 05:59:13;;;;;;;;;;;22.40;92.50;;;;;;5066402;28;19920;-91
2023/07/01 06:01:39;;;;;;;;;;;22.80;91.10;;;;;;5065064;28;19934;-88
2023/07/01 06:04:04;;;;;;;;;;;23.20;91.20;;;;;;5062636;28;19950;-89
2023/07/01 06:06:31;;;;;;;;;;;24.40;90.40;;;;;;5068512;28;19927;-89
2023/07/01 06:08:58;;;;;;;;;;;25.50;85.30;;;;;;5082335;28;19996;-91
2023/07/01 06:11:24;;;;;;;;;;;26.60;82.60;;;;;;5063102;28;19909;-88
2023/07/01 06:13:52;;;;;;;;;;;27.20;78.60;;;;;;5066169;28;19913;-86
2023/07/01 06:16:17;;;;;;;;;;;27.30;75.10;;;;;;5067522;28;19916;-89
2023/07/01 06:18:43;;;;;;;;;;;26.60;73.70;;;;;;5074168;28;19930;-87
2023/07/01 06:21:09;;;;;;;;;;;25.90;73.80;;;;;;5084799;28;19909;-87
2023/07/01 06:23:35;;;;;;;;;;;25.20;75.40;;;;;;5076330;28;19916;-84
2023/07/01 06:26:01;;;;;;;;;;;25.20;77.60;;;;;;5062495;28;20014;-86
2023/07/01 06:28:27;;;;;;;;;;;25.90;76.70;;;;;;5079148;28;19920;-89
2023/07/01 06:30:57;;;;;;;;;;;;;;;;;;5087920;28;19908;-90
2023/07/01 06:33:24;;;;;;;;;;;;;;;;;;5068716;28;19919;-90
2023/07/01 06:35:50;;;;;;;;;;;;;;;;;;5083114;28;19954;-89
2023/07/01 06:38:16;;;;;;;;;;;;;;;;;;5082241;28;19909;-86
2023/07/01 06:40:42;;;;;;;;;;;;;;;;;;5100694;28;19897;-85
2023/07/01 06:43:08;;;;;;;;;;;;;;;;;;5074569;28;19938;-88
2023/07/01 06:45:35;;;;;;;;;;;;;;;;;;5067672;28;19974;-84
2023/07/01 06:48:01;;;;;;;;;;;30.10;67.40;;;;;;5059848;28;20067;-86
2023/07/01 06:50:26;;;;;;;;;;;26.90;66.90;;;;;;5059906;28;19904;-85
2023/07/01 06:52:52;;;;;;;;;;;25.70;68.20;;;;;;5057100;28;19913;-90
2023/07/01 06:55:19;;;;;;;;;;;24.70;70.00;;;;;;5056447;28;19924;-91
2023/07/01 06:57:45;;;;;;;;;;;23.90;71.90;;;;;;5023568;28;19973;-87
2023/07/01 07:00:12;;;;;;;;;;;23.50;73.80;;;;;;5039121;28;19925;-88
2023/07/01 07:02:38;;;;;;;;;;;;;;;;;;5022056;28;20054;-86
2023/07/01 07:05:04;;;;;;;;;;;23.20;75.10;;;;;;5045825;28;19917;-89
2023/07/01 07:07:30;;;;;;;;;;;22.70;77.40;;;;;;5059664;28;19920;-89
2023/07/01 07:09:56;;;;;;;;;;;22.50;78.10;;;;;;5064258;28;19917;-88
2023/07/01 07:12:21;;;;;;;;;;;22.50;78.60;;;;;;5042793;28;19920;-88
2023/07/01 07:14:47;;;;;;;;;;;23.10;80.40;;;;;;5028378;28;19909;-90
2023/07/01 07:17:14;;;;;;;;;;;25.30;77.30;;;;;;5058034;28;19901;-92
2023/07/01 07:19:41;;;;;;;;;;;27.30;71.40;;;;;;5092220;28;19908;-91
2023/07/01 07:22:08;;;;;;;;;;;29.10;68.30;;;;;;5076477;28;19932;-90
2023/07/01 07:24:33;;;;;;;;;;;30.00;62.30;;;;;;5067243;28;19959;-88
2023/07/01 07:27:02;;;;;;;;;;;29.20;60.40;;;;;;5087213;28;19921;-90
2023/07/01 07:29:30;;;;;;;;;;;29.00;62.00;;;;;;5067215;28;19928;-94
2023/07/01 07:31:57;;;;;;;;;;;;;;;;;;5070487;28;19909;-93
2023/07/01 07:37:19;;;;;;;;;;;;;;;;;;5085048;28;19919;-91
2023/07/01 07:39:46;;;;;;;;;;;;;;;;;;5085516;28;19925;-90
2023/07/01 07:42:12;;;;;;;;;;;;;;;;;;5085695;28;19948;-91
2023/07/01 07:44:38;;;;;;;;;;;;;;;;;;5071654;28;19916;-93
2023/07/01 07:47:05;;;;;;;;;;;28.40;61.10;;;;;;5077312;28;19917;-94
2023/07/01 07:49:39;;;;;;;;;;;30.10;54.70;;;;;;5097262;28;19923;-94
2023/07/01 07:52:22;;;;;;;;;;;30.80;54.00;;;;;;5096065;28;19913;-94
2023/07/01 07:54:59;;;;;;;;;;;;;;;;;;5060699;28;19919;-93
2023/07/01 07:57:27;;;;;;;;;;;;;;;;;;5072810;28;19916;-94
2023/07/01 07:59:53;;;;;;;;;;;;;;;;;;5083895;28;19909;-94
2023/07/01 08:02:22;;;;;;;;;;;;;;;;;;5097035;28;19896;-94
2023/07/01 08:04:48;;;;;;;;;;;;;;;;;;5096389;28;20449;-93
2023/07/01 08:07:14;;;;;;;;;;;;;;;;;;5098884;28;19928;-92
2023/07/01 08:09:40;;;;;;;;;;;;;;;;;;5089242;28;19944;-94
2023/07/01 08:12:06;;;;;;;;;;;;;;;;;;5092114;28;19913;-92
2023/07/01 08:14:32;;;;;;;;;;;;;;;;;;5067052;28;19909;-94
2023/07/01 08:16:59;;;;;;;;;;;;;;;;;;5054892;28;20415;-92
2023/07/01 08:19:25;;;;;;;;;;;;;;;;;;5066382;28;20350;-90
2023/07/01 08:21:51;;;;;;;;;;;;;;;;;;5058464;28;19965;-87
2023/07/01 08:24:16;;;;;;;;;;;30.80;52.70;;;;;;5074535;28;20003;-84
2023/07/01 08:26:42;;;;;;;;;;;28.70;54.50;;;;;;5056229;28;19947;-84
2023/07/01 08:29:08;;;;;;;;;;;29.50;52.80;;;;;;5065525;28;19915;-85
2023/07/01 08:31:34;;;;;;;;;;;29.70;51.10;;;;;;5073976;28;19919;-83
2023/07/01 08:34:00;;;;;;;;;;;30.40;52.40;;;;;;5074713;28;19909;-83
2023/07/01 08:36:26;;;;;;;;;;;32.20;51.00;;;;;;5074188;28;19917;-84
2023/07/01 08:38:52;;;;;;;;;;;33.90;47.70;;;;;;5075809;28;19951;-84
2023/07/01 08:41:18;;;;;;;;;;;;;;;;;;5070220;28;19908;-86
2023/07/01 08:43:47;;;;;;;;;;;36.20;44.30;;;;;;5079529;28;19909;-84
2023/07/01 08:46:15;;;;;;;;;;;36.80;41.20;;;;;;5073583;28;19939;-84
2023/07/01 08:48:43;;;;;;;;;;;36.30;42.00;;;;;;5079278;28;20362;-88
2023/07/01 08:51:25;;;;;;;;;;;36.50;41.90;;;;;;5074469;28;19982;-86
2023/07/01 08:53:51;;;;;;;;;;;36.70;41.40;;;;;;5057333;28;19931;-87
2023/07/01 08:56:20;;;;;;;;;;;36.20;41.10;;;;;;5076064;28;20242;-89
2023/07/01 08:58:46;;;;;;;;;;;34.20;41.70;;;;;;5078015;28;19940;-88
2023/07/01 09:01:12;;;;;;;;;;;33.70;41.90;;;;;;5075293;28;19919;-86
2023/07/01 09:03:38;;;;;;;;;;;32.20;44.20;;;;;;5054524;28;19909;-87
2023/07/01 09:06:05;;;;;;;;;;;30.40;46.00;;;;;;5067686;28;19916;-83
2023/07/01 09:08:32;;;;;;;;;;;29.10;49.00;;;;;;5073483;28;19946;-85
2023/07/01 09:10:58;;;;;;;;;;;28.40;50.80;;;;;;5074803;28;20277;-87
2023/07/01 09:13:25;;;;;;;;;;;28.70;50.70;;;;;;5073933;28;19915;-84
2023/07/01 09:15:51;;;;;;;;;;;30.00;49.60;;;;;;5072295;28;19913;-84
2023/07/01 09:18:20;;;;;;;;;;;31.80;48.00;;;;;;5072889;28;19962;-82
2023/07/01 09:20:46;;;;;;;;;;;32.40;45.30;;;;;;5056257;28;19916;-84
2023/07/01 09:23:27;;;;;;;;;;;31.30;45.40;;;;;;5076651;28;19912;-85
2023/07/01 09:26:14;;;;;;;;;;;30.80;47.40;;;;;;5056354;28;19940;-85
2023/07/01 09:28:40;;;;;;;;;;;30.90;47.00;;;;;;5084673;28;19985;-84
2023/07/01 09:31:09;;;;;;;;;;;30.20;47.30;;;;;;5056426;28;20392;-83
2023/07/01 09:33:35;;;;;;;;;;;29.30;48.00;;;;;;5073334;28;19958;-82
2023/07/01 09:36:02;;;;;;;;;;;29.00;49.80;;;;;;5072772;28;20011;-84
2023/07/01 09:38:28;;;;;;;;;;;29.70;49.70;;;;;;5075051;28;19916;-84
2023/07/01 09:40:54;;;;;;;;;;;31.60;49.20;;;;;;5071139;28;19958;-82
2023/07/01 09:43:19;;;;;;;;;;;32.80;45.70;;;;;;5072350;28;20011;-84
2023/07/01 09:45:51;;;;;;;;;;;32.80;44.70;;;;;;5073521;28;19908;-83
2023/07/01 09:48:18;;;;;;;;;;;33.10;44.80;;;;;;5072394;28;19920;-85
2023/07/01 09:50:44;;;;;;;;;;;33.70;43.30;;;;;;5073058;28;19908;-83
2023/07/01 09:53:20;;;;;;;;;;;34.50;42.40;;;;;;5074655;28;19958;-83
2023/07/01 09:55:47;;;;;;;;;;;34.50;41.20;;;;;;5071600;28;19912;-83
2023/07/01 09:58:13;;;;;;;;;;;34.40;41.90;;;;;;5054919;28;19912;-85
2023/07/01 10:00:39;;;;;;;;;;;34.70;42.10;;;;;;5055800;28;19912;-85
2023/07/01 10:03:07;;;;;;;;;;;35.50;41.00;;;;;;5045812;28;19978;-85
2023/07/01 10:05:33;;;;;;;;;;;36.20;40.50;;;;;;5067283;28;19913;-82
2023/07/01 10:07:59;;;;;;;;;;;35.30;39.60;;;;;;5083442;28;19921;-83
2023/07/01 10:10:25;;;;;;;;;;;34.40;40.50;;;;;;5076425;28;19930;-85
2023/07/01 10:12:51;;;;;;;;;;;34.80;41.00;;;;;;5074925;28;19912;-84
2023/07/01 10:15:26;;;;;;;;;;;35.10;40.20;;;;;;5062220;28;19913;-85
2023/07/01 10:17:52;;;;;;;;;;;34.80;40.00;;;;;;5072779;28;19915;-86
2023/07/01 10:20:26;;;;;;;;;;;34.00;40.30;;;;;;5075945;28;19954;-84
2023/07/01 10:22:57;;;;;;;;;;;33.40;41.60;;;;;;5084812;28;19953;-87
2023/07/01 10:25:38;;;;;;;;;;;33.60;42.30;;;;;;5060234;28;19912;-86
2023/07/01 10:28:05;;;;;;;;;;;34.40;41.30;;;;;;5078197;28;19916;-85
2023/07/01 10:30:46;;;;;;;;;;;34.60;40.10;;;;;;5081431;28;20318;-86
2023/07/01 10:33:27;;;;;;;;;;;34.70;39.70;;;;;;5087294;28;20453;-87
2023/07/01 10:36:03;;;;;;;;;;;33.40;39.70;;;;;;5089259;28;19915;-83
2023/07/01 10:38:31;;;;;;;;;;;31.60;41.10;;;;;;5088012;28;19943;-85
2023/07/01 10:40:57;;;;;;;;;;;;;;;;;;5092582;28;19972;-87
2023/07/01 10:43:23;;;;;;;;;;;;;;;;;;5091055;28;19992;-84
2023/07/01 10:45:50;;;;;;;;;;;;;;;;;;5093691;28;19958;-83
2023/07/01 10:48:16;;;;;;;;;;;;;;;;;;5062683;28;19921;-85
2023/07/01 10:50:42;;;;;;;;;;;;;;;;;;5078482;28;19912;-86
2023/07/01 10:53:08;;;;;;;;;;;;;;;;;;5081441;28;19930;-87
2023/07/01 10:55:34;;;;;;;;;;;;;;;;;;5063508;28;19912;-86
2023/07/01 10:58:00;;;;;;;;;;;;;;;;;;5050225;28;19909;-86
2023/07/01 11:00:26;;;;;;;;;;;;;;;;;;5070675;28;20378;-83
2023/07/01 11:02:52;;;;;;;;;;;;;;;;;;5058804;28;19908;-83
2023/07/01 11:05:18;;;;;;;;;;;;;;;;;;5077051;28;19999;-83
2023/07/01 11:07:44;;;;;;;;;;;30.20;43.10;;;;;;5058741;28;20377;-80
2023/07/01 11:10:10;;;;;;;;;;;27.00;49.50;;;;;;5075845;28;19908;-84
2023/07/01 11:12:36;;;;;;;;;;;26.70;49.50;;;;;;5075066;28;19919;-81
2023/07/01 11:15:02;;;;;;;;;;;26.70;49.70;;;;;;5074120;28;20031;-81
2023/07/01 11:17:28;;;;;;;;;;;26.80;50.00;;;;;;5074522;28;19948;-82
2023/07/01 11:19:54;;;;;;;;;;;;;;;;;;5057765;28;19913;-81
2023/07/01 11:22:20;;;;;;;;;;;26.40;48.50;;;;;;5076311;28;19908;-81
2023/07/01 11:24:46;;;;;;;;;;;26.40;49.20;;;;;;5076539;28;19978;-81
2023/07/01 11:27:12;;;;;;;;;;;;;;;;;;5075913;28;20015;-81
2023/07/01 11:29:41;;;;;;;;;;;26.00;49.60;;;;;;5073741;28;19999;-83
2023/07/01 11:32:12;;;;;;;;;;;26.10;50.50;;;;;;5074412;28;19965;-81
2023/07/01 11:34:39;;;;;;;;;;;26.00;50.00;;;;;;5078030;28;19912;-82
2023/07/01 11:37:05;;;;;;;;;;;25.90;49.60;;;;;;5084028;28;19934;-80
2023/07/01 11:39:31;;;;;;;;;;;25.80;48.50;;;;;;5085132;28;19913;-83
2023/07/01 11:42:01;;;;;;;;;;;25.80;48.60;;;;;;5085044;28;19935;-83
2023/07/01 11:44:28;;;;;;;;;;;25.70;48.40;;;;;;5059057;28;19919;-84
2023/07/01 11:46:54;;;;;;;;;;;25.80;48.80;;;;;;5056266;28;19923;-84
2023/07/01 11:49:29;;;;;;;;;;;25.90;48.80;;;;;;5076334;28;20286;-82
2023/07/01 11:51:54;;;;;;;;;;;26.00;49.30;;;;;;5076958;28;19908;-83
2023/07/01 11:54:21;;;;;;;;;;;26.10;49.80;;;;;;5076486;28;19995;-84
2023/07/01 11:56:47;;;;;;;;;;;26.10;50.00;;;;;;5077019;28;19916;-82
2023/07/01 11:59:29;;;;;;;;;;;26.10;50.00;;;;;;5075814;28;19909;-83
2023/07/01 12:01:54;;;;;;;;;;;26.20;49.70;;;;;;5076527;28;19920;-80
2023/07/01 12:04:20;;;;;;;;;;;26.20;50.40;;;;;;5074709;28;20296;-81
2023/07/01 12:06:46;;;;;;;;;;;26.40;50.40;;;;;;5072593;28;20024;-79
2023/07/01 12:09:26;;;;;;;;;;;26.50;50.70;;;;;;5074290;28;19924;-81
2023/07/01 12:11:52;;;;;;;;;;;26.60;50.30;;;;;;5056608;28;19919;-82
2023/07/01 12:14:21;;;;;;;;;;;26.50;50.50;;;;;;5077064;28;20370;-79
2023/07/01 12:16:50;;;;;;;;;;;26.40;50.00;;;;;;5057479;28;20408;-81
2023/07/01 12:19:16;;;;;;;;;;;26.40;49.50;;;;;;5057398;28;20259;-82
2023/07/01 12:21:43;;;;;;;;;;;26.40;49.90;;;;;;5073080;28;19923;-82
2023/07/01 12:24:27;;;;;;;;;;;26.30;49.90;;;;;;5072220;28;20441;-82
2023/07/01 12:26:56;;;;;;;;;;;26.20;50.40;;;;;;5044062;28;19920;-81
2023/07/01 12:29:22;;;;;;;;;;;26.30;50.90;;;;;;5070531;28;19908;-83
2023/07/01 12:31:48;;;;;;;;;;;26.30;51.00;;;;;;5055133;28;19919;-82
2023/07/01 12:34:14;;;;;;;;;;;26.40;51.20;;;;;;5055169;28;19908;-81
2023/07/01 12:36:42;;;;;;;;;;;26.50;50.20;;;;;;5074280;28;19909;-80
2023/07/01 12:39:08;;;;;;;;;;;26.50;50.60;;;;;;5054482;28;19944;-82
2023/07/01 12:41:35;;;;;;;;;;;26.60;51.00;;;;;;5073731;28;19916;-80
2023/07/01 12:44:04;;;;;;;;;;;26.70;51.40;;;;;;5072924;28;19921;-82
2023/07/01 12:46:31;;;;;;;;;;;26.90;51.60;;;;;;5049033;28;19924;-82
2023/07/01 12:48:56;;;;;;;;;;;26.90;51.40;;;;;;5072450;28;19992;-82
2023/07/01 12:51:22;;;;;;;;;;;27.00;51.70;;;;;;5071909;28;20377;-80
2023/07/01 12:53:48;;;;;;;;;;;27.10;51.90;;;;;;5091871;28;19938;-82
2023/07/01 12:56:14;;;;;;;;;;;27.10;51.60;;;;;;5067362;28;19968;-83
2023/07/01 12:58:40;;;;;;;;;;;27.00;51.70;;;;;;5076138;28;20416;-82
2023/07/01 13:01:06;;;;;;;;;;;26.90;52.20;;;;;;5073250;28;19936;-81
2023/07/01 13:03:32;;;;;;;;;;;26.80;52.30;;;;;;5054803;28;19912;-81
2023/07/01 13:05:59;;;;;;;;;;;26.70;52.00;;;;;;5072465;28;19913;-80
2023/07/01 13:08:25;;;;;;;;;;;26.70;52.10;;;;;;5070870;28;19920;-81
2023/07/01 13:10:50;;;;;;;;;;;26.60;52.40;;;;;;5050023;28;20015;-80
2023/07/01 13:13:16;;;;;;;;;;;26.60;52.90;;;;;;5053971;28;19947;-81
2023/07/01 13:15:47;;;;;;;;;;;26.70;53.30;;;;;;5071079;28;19916;-81
2023/07/01 13:18:19;;;;;;;;;;;26.80;52.90;;;;;;5072541;28;19982;-81
2023/07/01 13:20:45;;;;;;;;;;;26.90;51.90;;;;;;5054892;28;19919;-81
2023/07/01 13:23:11;;;;;;;;;;;26.70;51.10;;;;;;5072588;28;19912;-80
2023/07/01 13:25:36;;;;;;;;;;;26.50;51.30;;;;;;5073416;28;19938;-81
2023/07/01 13:28:03;;;;;;;;;;;26.20;51.50;;;;;;5074012;28;20324;-80
2023/07/01 13:30:29;;;;;;;;;;;26.10;52.40;;;;;;5073152;28;19913;-81
2023/07/01 13:32:54;;;;;;;;;;;26.00;52.80;;;;;;5072519;28;20285;-81
2023/07/01 13:35:21;;;;;;;;;;;26.00;53.10;;;;;;5073988;28;19917;-83
2023/07/01 13:37:46;;;;;;;;;;;26.10;53.60;;;;;;5073922;28;19914;-83
2023/07/01 13:40:13;;;;;;;;;;;26.30;53.60;;;;;;5055727;28;19935;-82
2023/07/01 13:42:39;;;;;;;;;;;26.60;53.50;;;;;;5078341;28;19948;-85
2023/07/01 13:45:07;;;;;;;;;;;27.60;53.50;;;;;;5077230;28;19909;-82
2023/07/01 13:47:32;;;;;;;;;;;28.50;51.80;;;;;;5073459;28;19931;-85
2023/07/01 13:49:58;;;;;;;;;;;29.40;51.20;;;;;;5074163;28;19936;-84
2023/07/01 13:52:24;;;;;;;;;;;30.10;50.70;;;;;;5073450;28;19948;-84
2023/07/01 13:54:49;;;;;;;;;;;29.80;49.30;;;;;;5074511;28;20366;-83
2023/07/01 13:57:26;;;;;;;;;;;30.00;49.50;;;;;;5075936;28;20006;-84
2023/07/01 13:59:51;;;;;;;;;;;30.40;49.00;;;;;;5056783;28;19909;-84
2023/07/01 14:02:17;;;;;;;;;;;30.90;48.90;;;;;;5053346;28;20015;-83
2023/07/01 14:04:43;;;;;;;;;;;31.40;47.80;;;;;;5076879;28;19920;-83
2023/07/01 14:07:08;;;;;;;;;;;31.70;47.50;;;;;;5077139;28;19960;-81
2023/07/01 14:09:36;;;;;;;;;;;31.90;47.10;;;;;;5077139;28;19927;-81
2023/07/01 14:12:02;;;;;;;;;;;31.80;44.80;;;;;;5078172;28;20297;-81
2023/07/01 14:14:28;;;;;;;;;;;31.30;44.80;;;;;;5068706;28;19909;-81
2023/07/01 14:16:55;;;;;;;;;;;31.20;45.50;;;;;;5074699;28;19952;-81
2023/07/01 14:19:21;;;;;;;;;;;31.10;46.00;;;;;;5074650;28;19916;-80
2023/07/01 14:21:52;;;;;;;;;;;31.20;45.90;;;;;;5074869;28;19912;-82
2023/07/01 14:24:28;;;;;;;;;;;31.10;45.70;;;;;;5075096;28;19958;-81
2023/07/01 14:26:58;;;;;;;;;;;30.10;45.00;;;;;;5068050;28;20424;-83
2023/07/01 14:29:24;;;;;;;;;;;29.00;45.90;;;;;;5072854;28;19931;-83
2023/07/01 14:31:53;;;;;;;;;;;28.10;47.00;;;;;;5065683;28;19916;-82
2023/07/01 14:34:27;;;;;;;;;;;27.60;48.00;;;;;;5061761;28;19913;-85